Time;durP1;ratioP1;P1;durP2;ratioP2;P2;SDS_P1;SDS_P2;PMS_P1;PMS_P2;Temp;Humidity;BMP_temperature;BMP_pressure;BME280_temperature;BME280_humidity;BME280_pressure;Samples;Min_cycle;Max_cycle;Signal;HPM_P1;HPM_P2
2022/10/16 00:00:31;;;;;;;4.35;3.17;;;18.30;69.30;;;;;;5115749;28;20475;-84
2022/10/16 00:02:56;;;;;;;5.55;2.97;;;18.30;62.10;;;;;;5109712;28;20031;-84
2022/10/16 00:05:22;;;;;;;4.60;3.30;;;18.30;68.60;;;;;;5094782;28;20494;-84
2022/10/16 00:07:48;;;;;;;3.92;3.13;;;18.30;84.60;;;;;;5095171;28;20082;-84
2022/10/16 00:10:13;;;;;;;4.18;3.17;;;18.40;65.70;;;;;;5094253;28;20518;-84
2022/10/16 00:12:39;;;;;;;6.03;3.40;;;18.20;66.10;;;;;;5094995;28;20020;-84
2022/10/16 00:15:05;;;;;;;6.63;4.05;;;18.10;67.40;;;;;;5094324;28;20028;-85
2022/10/16 00:17:31;;;;;;;6.30;3.30;;;18.10;69.00;;;;;;5094615;28;20388;-85
2022/10/16 00:19:57;;;;;;;5.95;3.60;;;18.10;69.30;;;;;;5094856;28;20032;-85
2022/10/16 00:22:23;;;;;;;6.20;3.28;;;18.10;69.00;;;;;;5094077;28;20020;-84
2022/10/16 00:24:49;;;;;;;5.72;3.33;;;18.10;71.80;;;;;;5075687;28;20809;-85
2022/10/16 00:27:15;;;;;;;4.45;3.13;;;18.00;69.10;;;;;;5093333;28;20043;-84
2022/10/16 00:29:40;;;;;;;5.35;3.40;;;18.00;70.70;;;;;;5075778;28;20543;-85
2022/10/16 00:32:06;;;;;;;9.80;3.53;;;18.00;68.70;;;;;;5107611;28;20107;-84
2022/10/16 00:34:31;;;;;;;5.75;3.47;;;18.00;70.20;;;;;;5114090;28;20027;-84
2022/10/16 00:36:57;;;;;;;4.63;3.50;;;18.00;69.80;;;;;;5114556;28;20262;-85
2022/10/16 00:39:23;;;;;;;5.38;3.17;;;17.80;69.10;;;;;;5113891;28;20031;-84
2022/10/16 00:41:49;;;;;;;3.80;3.40;;;17.80;71.90;;;;;;5113980;28;20058;-84
2022/10/16 00:44:53;;;;;;;4.20;3.63;;;17.80;70.60;;;;;;5114092;28;20031;-85
2022/10/16 00:47:24;;;;;;;4.40;3.28;;;17.90;76.10;;;;;;5113895;28;20578;-85
2022/10/16 00:49:52;;;;;;;5.40;3.10;;;17.80;75.00;;;;;;5113869;28;20063;-84
2022/10/16 00:52:19;;;;;;;4.47;3.42;;;17.80;75.50;;;;;;5113996;28;20395;-85
2022/10/16 00:54:46;;;;;;;7.13;3.53;;;17.80;74.00;;;;;;5113928;28;20015;-85
2022/10/16 00:57:13;;;;;;;5.20;3.35;;;17.80;75.10;;;;;;5113663;28;20031;-85
2022/10/16 00:59:41;;;;;;;4.65;3.40;;;17.70;71.70;;;;;;5114048;28;20032;-85
2022/10/16 01:02:09;;;;;;;6.55;3.40;;;17.70;76.90;;;;;;5113715;28;20073;-85
2022/10/16 01:04:38;;;;;;;4.25;3.20;;;17.70;77.30;;;;;;5093870;28;20034;-85
2022/10/16 01:07:09;;;;;;;6.00;3.40;;;17.70;77.20;;;;;;5092961;28;20095;-85
2022/10/16 01:09:52;;;;;;;6.07;3.50;;;17.70;78.70;;;;;;5093567;28;20053;-84
2022/10/16 01:12:33;;;;;;;7.18;3.97;;;17.70;79.80;;;;;;5093142;28;20040;-85
2022/10/16 01:15:19;;;;;;;4.22;3.30;;;17.70;78.40;;;;;;5092912;28;20395;-85
2022/10/16 01:18:01;;;;;;;5.43;3.60;;;17.70;80.10;;;;;;5093452;28;20029;-85
2022/10/16 01:20:43;;;;;;;6.35;3.70;;;17.70;79.70;;;;;;5092886;28;20032;-85
2022/10/16 01:23:25;;;;;;;5.88;3.67;;;17.70;79.70;;;;;;5092140;28;20035;-85
2022/10/16 01:26:06;;;;;;;6.35;3.55;;;17.70;80.40;;;;;;5092543;28;20028;-85
2022/10/16 01:28:49;;;;;;;7.05;3.60;;;17.70;80.20;;;;;;5092319;28;20023;-84
2022/10/16 01:31:18;;;;;;;4.30;3.85;;;17.80;80.60;;;;;;5100206;28;20119;-84
2022/10/16 01:33:50;;;;;;;5.38;3.63;;;17.80;78.80;;;;;;5112878;28;20026;-85
2022/10/16 01:36:23;;;;;;;6.35;3.90;;;17.70;80.70;;;;;;5113214;28;20361;-85
2022/10/16 01:38:52;;;;;;;4.88;3.53;;;17.80;79.20;;;;;;5112937;28;20023;-84
2022/10/16 01:41:33;;;;;;;6.38;3.75;;;17.70;78.30;;;;;;5113562;28;20023;-85
2022/10/16 01:44:18;;;;;;;5.57;3.60;;;17.70;80.10;;;;;;5113374;28;20028;-84
2022/10/16 01:46:47;;;;;;;5.65;3.80;;;17.70;80.60;;;;;;5112868;28;20024;-84
2022/10/16 01:49:14;;;;;;;5.75;3.60;;;17.70;80.00;;;;;;5112774;28;20016;-84
2022/10/16 01:51:41;;;;;;;4.18;3.78;;;17.70;79.80;;;;;;5112523;28;20046;-85
2022/10/16 01:54:08;;;;;;;5.72;3.83;;;17.70;80.00;;;;;;5112868;28;20467;-85
2022/10/16 01:56:36;;;;;;;6.65;4.07;;;17.70;74.90;;;;;;5112902;28;20426;-84
2022/10/16 01:59:13;;;;;;;7.60;3.60;;;17.70;81.70;;;;;;5112545;28;20022;-85
2022/10/16 02:01:42;;;;;;;7.13;4.60;;;17.60;82.60;;;;;;5113477;28;20099;-85
2022/10/16 02:04:18;;;;;;;6.63;3.92;;;17.60;81.40;;;;;;5096870;28;20032;-85
2022/10/16 02:06:44;;;;;;;4.30;3.88;;;17.60;81.80;;;;;;5091916;28;20028;-84
2022/10/16 02:09:10;;;;;;;7.72;3.92;;;17.60;77.50;;;;;;5092465;28;20028;-85
2022/10/16 02:11:36;;;;;;;5.80;4.22;;;17.70;82.10;;;;;;5092348;28;20071;-84
2022/10/16 02:14:05;;;;;;;8.40;3.92;;;17.70;79.60;;;;;;5092309;28;20020;-84
2022/10/16 02:16:36;;;;;;;10.60;4.18;;;17.70;83.40;;;;;;5092206;28;20024;-84
2022/10/16 02:19:03;;;;;;;6.72;4.38;;;17.70;84.50;;;;;;5092147;28;20051;-85
2022/10/16 02:21:54;;;;;;;4.93;4.18;;;17.70;83.20;;;;;;5092041;28;20024;-84
2022/10/16 02:24:29;;;;;;;4.93;3.80;;;17.70;96.00;;;;;;5092239;28;20058;-85
2022/10/16 02:27:22;;;;;;;7.70;4.45;;;17.70;81.90;;;;;;5092148;28;20036;-84
2022/10/16 02:29:53;;;;;;;6.82;4.13;;;17.70;85.40;;;;;;5092006;28;20098;-85
2022/10/16 02:32:27;;;;;;;6.68;4.65;;;17.70;96.00;;;;;;5108287;28;20028;-84
2022/10/16 02:34:54;;;;;;;8.07;5.25;;;17.70;84.50;;;;;;5111798;28;20110;-85
2022/10/16 02:37:20;;;;;;;6.25;4.30;;;17.70;82.10;;;;;;5094085;28;20468;-84
2022/10/16 02:39:46;;;;;;;7.40;4.50;;;17.60;86.60;;;;;;5094136;28;20024;-85
2022/10/16 02:42:13;;;;;;;7.07;4.68;;;17.60;82.50;;;;;;5112301;28;20046;-84
2022/10/16 02:44:39;;;;;;;6.85;4.75;;;17.60;86.30;;;;;;5112358;28;20027;-84
2022/10/16 02:47:05;;;;;;;5.95;4.50;;;17.60;83.40;;;;;;5112480;28;20076;-85
2022/10/16 02:49:30;;;;;;;7.32;4.50;;;17.70;79.30;;;;;;5094694;28;20054;-84
2022/10/16 02:51:56;;;;;;;6.38;4.72;;;17.60;82.70;;;;;;5116275;28;20449;-84
2022/10/16 02:54:22;;;;;;;9.75;4.50;;;17.60;83.10;;;;;;5116194;28;20108;-84
2022/10/16 02:56:47;;;;;;;5.78;4.55;;;17.70;81.70;;;;;;5116114;28;20080;-85
2022/10/16 02:59:13;;;;;;;6.07;4.63;;;17.70;84.10;;;;;;5116297;28;20399;-84
2022/10/16 03:01:38;;;;;;;6.60;4.90;;;17.60;94.90;;;;;;5115977;28;20063;-84
2022/10/16 03:04:04;;;;;;;7.85;5.28;;;17.60;84.60;;;;;;5100264;28;20016;-84
2022/10/16 03:06:30;;;;;;;6.25;4.82;;;17.60;84.70;;;;;;5095492;28;20028;-84
2022/10/16 03:08:55;;;;;;;5.90;5.13;;;17.60;85.90;;;;;;5095309;28;20476;-85
2022/10/16 03:11:21;;;;;;;8.85;5.10;;;17.80;85.50;;;;;;5095124;28;20105;-84
2022/10/16 03:13:46;;;;;;;6.40;5.20;;;17.50;86.50;;;;;;5095773;28;20031;-84
2022/10/16 03:16:12;;;;;;;6.15;5.10;;;17.60;86.70;;;;;;5095519;28;20036;-84
2022/10/16 03:18:38;;;;;;;6.78;4.85;;;17.60;85.50;;;;;;5095112;28;20035;-85
2022/10/16 03:21:03;;;;;;;7.47;5.35;;;17.50;85.50;;;;;;5095205;28;20024;-84
2022/10/16 03:23:29;;;;;;;5.95;5.35;;;17.50;86.50;;;;;;5095299;28;20024;-84
2022/10/16 03:25:54;;;;;;;7.38;5.38;;;17.50;88.30;;;;;;5095354;28;20107;-85
2022/10/16 03:28:20;;;;;;;9.05;5.63;;;17.50;89.50;;;;;;5095147;28;20098;-84
2022/10/16 03:30:46;;;;;;;7.45;5.30;;;17.60;87.80;;;;;;5097813;28;20043;-84
2022/10/16 03:33:12;;;;;;;9.20;5.32;;;17.60;89.60;;;;;;5115025;28;20053;-84
2022/10/16 03:35:37;;;;;;;5.85;5.10;;;17.60;86.90;;;;;;5115435;28;20028;-85
2022/10/16 03:38:03;;;;;;;8.00;5.45;;;17.60;89.00;;;;;;5115350;28;20032;-85
2022/10/16 03:40:29;;;;;;;7.15;5.32;;;17.60;87.50;;;;;;5115190;28;20023;-85
2022/10/16 03:42:57;;;;;;;9.15;5.50;;;17.60;89.60;;;;;;5115653;28;20028;-85
2022/10/16 03:45:23;;;;;;;7.88;5.40;;;17.60;89.40;;;;;;5115233;28;20015;-85
2022/10/16 03:47:48;;;;;;;8.13;5.50;;;17.60;90.50;;;;;;5114887;28;20020;-85
2022/10/16 03:50:14;;;;;;;9.35;5.15;;;17.50;88.80;;;;;;5115076;28;20092;-85
2022/10/16 03:52:40;;;;;;;8.68;5.43;;;17.50;88.60;;;;;;5115145;28;20422;-84
2022/10/16 03:55:06;;;;;;;7.15;5.68;;;17.50;90.10;;;;;;5114873;28;20050;-85
2022/10/16 03:57:32;;;;;;;7.60;5.45;;;17.50;91.00;;;;;;5115398;28;20041;-84
2022/10/16 03:59:57;;;;;;;7.78;5.45;;;17.50;89.90;;;;;;5114892;28;20023;-85
2022/10/16 04:02:23;;;;;;;9.15;5.40;;;17.50;90.80;;;;;;5112074;28;20024;-85
2022/10/16 04:04:49;;;;;;;6.40;5.28;;;17.50;90.90;;;;;;5094465;28;20024;-84
2022/10/16 04:07:14;;;;;;;6.43;5.45;;;17.40;90.00;;;;;;5094546;28;20027;-84
2022/10/16 04:09:40;;;;;;;6.28;5.20;;;17.40;90.20;;;;;;5094088;28;20024;-84
2022/10/16 04:12:05;;;;;;;9.10;5.40;;;17.40;91.50;;;;;;5076340;28;20052;-84
2022/10/16 04:14:31;;;;;;;6.90;5.43;;;17.40;89.90;;;;;;5094260;28;20024;-84
2022/10/16 04:16:56;;;;;;;9.93;5.90;;;17.30;91.00;;;;;;5093821;28;20066;-85
2022/10/16 04:19:22;;;;;;;8.18;5.88;;;17.30;91.30;;;;;;5094054;28;20111;-85
2022/10/16 04:21:47;;;;;;;9.40;5.40;;;17.30;90.70;;;;;;5094331;28;20032;-83
2022/10/16 04:24:13;;;;;;;9.15;5.40;;;17.30;91.00;;;;;;5093897;28;20016;-84
2022/10/16 04:26:39;;;;;;;10.68;5.90;;;17.30;92.30;;;;;;5094004;28;20426;-85
2022/10/16 04:29:05;;;;;;;6.95;5.47;;;17.20;91.10;;;;;;5075534;28;20024;-85
2022/10/16 04:31:31;;;;;;;7.57;5.35;;;17.20;91.70;;;;;;5102514;28;20070;-85
2022/10/16 04:33:57;;;;;;;8.60;6.10;;;17.20;92.20;;;;;;5114576;28;20023;-85
2022/10/16 04:36:22;;;;;;;9.55;5.43;;;17.20;91.80;;;;;;5113888;28;20084;-85
2022/10/16 04:38:48;;;;;;;9.25;5.63;;;17.10;90.60;;;;;;5114512;28;20503;-84
2022/10/16 04:41:14;;;;;;;7.57;5.72;;;17.20;91.00;;;;;;5114125;28;20058;-85
2022/10/16 04:43:39;;;;;;;10.43;5.50;;;17.20;91.00;;;;;;5114024;28;20031;-85
2022/10/16 04:46:05;;;;;;;8.15;5.70;;;17.20;92.00;;;;;;5114073;28;20277;-85
2022/10/16 04:48:31;;;;;;;7.93;5.70;;;17.10;91.40;;;;;;5113905;28;20023;-85
2022/10/16 04:50:57;;;;;;;8.00;5.50;;;17.20;92.90;;;;;;5113609;28;20035;-84
2022/10/16 04:53:23;;;;;;;6.15;5.22;;;17.20;92.70;;;;;;5114201;28;20027;-85
2022/10/16 04:55:49;;;;;;;8.10;5.57;;;17.20;92.80;;;;;;5113713;28;20020;-84
2022/10/16 04:58:14;;;;;;;8.23;5.57;;;17.20;92.80;;;;;;5113822;28;20024;-84
2022/10/16 05:00:40;;;;;;;10.05;5.75;;;17.10;99.90;;;;;;5113376;28;20067;-84
2022/10/16 05:03:08;;;;;;;6.88;5.78;;;17.10;92.30;;;;;;5106788;28;20359;-85
2022/10/16 05:05:34;;;;;;;7.07;5.57;;;17.20;99.90;;;;;;5093653;28;20028;-84
2022/10/16 05:08:00;;;;;;;8.73;5.85;;;17.30;93.70;;;;;;5093364;28;20099;-85
2022/10/16 05:10:26;;;;;;;9.27;5.72;;;17.30;92.70;;;;;;5092992;28;20058;-85
2022/10/16 05:12:51;;;;;;;9.27;5.82;;;17.30;92.70;;;;;;5092666;28;20430;-84
2022/10/16 05:15:18;;;;;;;12.18;5.65;;;17.20;92.50;;;;;;5092994;28;20031;-84
2022/10/16 05:17:44;;;;;;;6.82;5.07;;;17.20;92.90;;;;;;5093515;28;20024;-85
2022/10/16 05:20:10;;;;;;;7.15;5.25;;;17.20;93.90;;;;;;5093032;28;20408;-84
2022/10/16 05:22:35;;;;;;;7.22;5.35;;;17.20;93.40;;;;;;5093729;28;20012;-84
2022/10/16 05:25:01;;;;;;;8.32;5.95;;;17.20;93.50;;;;;;5092543;28;20549;-85
2022/10/16 05:27:26;;;;;;;6.63;5.68;;;17.00;93.00;;;;;;5092813;28;20028;-84
2022/10/16 05:29:52;;;;;;;8.45;5.45;;;16.90;93.40;;;;;;5092599;28;20035;-85
2022/10/16 05:32:18;;;;;;;7.53;5.82;;;16.90;92.30;;;;;;5090125;28;20126;-85
2022/10/16 05:34:45;;;;;;;6.50;5.63;;;16.90;92.30;;;;;;5113756;28;20004;-85
2022/10/16 05:37:11;;;;;;;9.82;5.85;;;17.00;94.50;;;;;;5113430;28;20039;-85
2022/10/16 05:39:37;;;;;;;6.47;5.60;;;17.00;95.70;;;;;;5112928;28;20015;-85
2022/10/16 05:42:04;;;;;;;7.47;5.35;;;17.00;94.70;;;;;;5113704;28;20073;-84
2022/10/16 05:44:30;;;;;;;7.68;5.10;;;16.90;94.30;;;;;;5112144;28;20372;-85
2022/10/16 05:46:56;;;;;;;6.90;5.07;;;16.90;94.20;;;;;;5113420;28;20462;-85
2022/10/16 05:49:22;;;;;;;7.00;5.28;;;16.90;93.80;;;;;;5112677;28;20016;-84
2022/10/16 05:51:47;;;;;;;6.85;5.65;;;16.80;93.10;;;;;;5094495;28;20461;-85
2022/10/16 05:54:13;;;;;;;7.32;5.45;;;16.80;93.30;;;;;;5113228;28;20020;-85
2022/10/16 05:56:38;;;;;;;9.60;5.38;;;16.70;92.50;;;;;;5113301;28;20059;-85
2022/10/16 05:59:04;;;;;;;7.10;5.45;;;16.70;93.50;;;;;;5112709;28;20073;-85
2022/10/16 06:01:30;;;;;;;9.65;5.70;;;16.80;92.30;;;;;;5112817;28;20444;-85
2022/10/16 06:03:56;;;;;;;8.80;5.45;;;16.80;93.90;;;;;;5098485;28;20042;-84
2022/10/16 06:06:25;;;;;;;9.00;5.38;;;16.80;94.40;;;;;;5092317;28;20202;-84
2022/10/16 06:08:52;;;;;;;8.73;5.43;;;16.80;95.80;;;;;;5092742;28;20024;-84
2022/10/16 06:11:26;;;;;;;7.10;5.30;;;16.90;95.60;;;;;;5091550;28;20048;-85
2022/10/16 06:13:54;;;;;;;11.40;5.68;;;16.90;95.70;;;;;;5092319;28;20036;-85
2022/10/16 06:16:19;;;;;;;8.80;5.88;;;17.00;95.40;;;;;;5092303;28;20028;-84
2022/10/16 06:18:46;;;;;;;6.47;5.50;;;17.00;94.70;;;;;;5092278;28;20027;-84
2022/10/16 06:21:16;;;;;;;7.93;5.55;;;17.00;95.70;;;;;;5074090;28;20031;-85
2022/10/16 06:23:42;;;;;;;11.10;5.68;;;17.10;95.50;;;;;;5092100;28;20487;-84
2022/10/16 06:26:09;;;;;;;6.45;5.28;;;17.10;95.80;;;;;;5112399;28;20444;-81
2022/10/16 06:28:35;;;;;;;8.85;5.43;;;17.30;95.30;;;;;;5116421;28;20100;-81
2022/10/16 06:31:03;;;;;;;7.00;5.63;;;17.30;94.40;;;;;;5098296;28;20052;-81
2022/10/16 06:33:28;;;;;;;7.20;5.18;;;17.30;95.60;;;;;;5115942;28;20070;-83
2022/10/16 06:35:59;;;;;;;7.45;5.65;;;17.30;95.30;;;;;;5116423;28;20023;-83
2022/10/16 06:38:25;;;;;;;8.35;5.63;;;17.30;96.10;;;;;;5116614;28;20506;-83
2022/10/16 06:40:50;;;;;;;6.38;5.28;;;17.30;94.70;;;;;;5116230;28;20031;-83
2022/10/16 06:43:16;;;;;;;6.30;5.28;;;17.40;94.40;;;;;;5116755;28;20544;-84
2022/10/16 06:45:41;;;;;;;8.10;4.88;;;17.40;94.20;;;;;;5115867;28;20027;-83
2022/10/16 06:48:07;;;;;;;6.63;4.68;;;17.50;94.80;;;;;;5116089;28;20028;-84
2022/10/16 06:50:32;;;;;;;5.78;5.00;;;17.50;94.50;;;;;;5116493;28;20089;-84
2022/10/16 06:52:58;;;;;;;6.43;4.63;;;17.60;94.20;;;;;;5116153;28;20024;-85
2022/10/16 06:55:24;;;;;;;9.75;4.88;;;17.70;99.90;;;;;;5116071;28;20486;-83
2022/10/16 06:57:49;;;;;;;7.53;4.47;;;17.80;93.50;;;;;;5115835;28;20031;-82
2022/10/16 07:00:15;;;;;;;12.90;4.65;;;17.80;93.90;;;;;;5116446;28;20093;-83
2022/10/16 07:02:41;;;;;;;5.47;4.35;;;17.70;99.90;;;;;;5116179;28;20049;-90
2022/10/16 07:05:07;;;;;;;7.28;4.00;;;17.90;99.90;;;;;;5112369;28;20039;-87
2022/10/16 07:07:32;;;;;;;5.00;4.40;;;17.90;99.90;;;;;;5116630;28;20031;-87
2022/10/16 07:09:58;;;;;;;6.70;4.50;;;18.10;99.90;;;;;;5115402;28;20024;-85
2022/10/16 07:12:23;;;;;;;6.18;4.05;;;18.10;99.90;;;;;;5104329;28;20107;-85
2022/10/16 07:14:52;;;;;;;7.63;4.03;;;18.10;99.90;;;;;;5115865;28;20028;-87
2022/10/16 07:17:17;;;;;;;6.75;4.32;;;18.10;99.90;;;;;;5115687;28;20038;-90
2022/10/16 07:19:45;;;;;;;5.57;4.15;;;18.20;99.90;;;;;;5115786;28;20114;-96
2022/10/16 07:22:11;;;;;;;7.25;4.63;;;18.30;99.90;;;;;;5117721;28;20077;-88
2022/10/16 07:24:36;;;;;;;4.32;3.80;;;18.30;99.90;;;;;;5116611;28;20027;-88
2022/10/16 07:27:02;;;;;;;6.80;3.78;;;18.40;99.90;;;;;;5113511;28;20035;-89
2022/10/16 07:29:28;;;;;;;7.57;4.35;;;18.50;99.90;;;;;;5105515;28;20091;-89
2022/10/16 07:31:53;;;;;;;4.85;3.75;;;18.70;99.90;;;;;;5106197;28;20034;-88
2022/10/16 07:34:21;;;;;;;5.53;3.47;;;18.80;99.90;;;;;;5102577;28;20016;-89
2022/10/16 07:36:50;;;;;;;8.15;4.15;;;18.90;99.90;;;;;;5094534;28;20403;-88
2022/10/16 07:39:17;;;;;;;7.15;3.45;;;18.90;99.90;;;;;;5088257;28;20031;-88
2022/10/16 07:41:42;;;;;;;6.32;3.85;;;19.20;99.90;;;;;;5115747;28;20039;-89
2022/10/16 07:44:08;;;;;;;4.20;3.30;;;20.70;99.90;;;;;;5114910;28;20380;-88
2022/10/16 07:46:35;;;;;;;4.72;3.65;;;23.80;99.90;;;;;;5115081;28;20065;-87
2022/10/16 07:49:02;;;;;;;4.75;3.17;;;25.60;99.90;;;;;;5114623;28;20034;-88
2022/10/16 07:51:28;;;;;;;4.70;3.20;;;29.60;99.90;;;;;;5115482;28;20043;-89
2022/10/16 07:53:54;;;;;;;5.72;3.30;;;32.10;99.90;;;;;;5114476;28;20141;-88
2022/10/16 07:56:21;;;;;;;4.68;3.10;;;33.70;99.90;;;;;;5115170;28;20428;-88
2022/10/16 07:58:49;;;;;;;6.47;3.30;;;34.00;99.90;;;;;;5114710;28;20028;-89
2022/10/16 08:01:16;;;;;;;4.40;2.92;;;34.50;99.90;;;;;;5114046;28;20044;-88
2022/10/16 08:03:43;;;;;;;5.03;3.20;;;35.00;99.90;;;;;;5102747;28;20020;-89
2022/10/16 08:06:09;;;;;;;6.22;3.10;;;35.80;99.90;;;;;;5106311;28;20046;-89
2022/10/16 08:08:35;;;;;;;5.35;3.28;;;35.60;99.90;;;;;;5114637;28;20019;-89
2022/10/16 08:11:03;;;;;;;6.85;3.00;;;35.10;99.90;;;;;;5114354;28;20055;-89
2022/10/16 08:13:31;;;;;;;5.65;2.88;;;34.80;99.90;;;;;;5110082;28;20028;-89
2022/10/16 08:15:57;;;;;;;4.57;2.88;;;35.10;99.90;;;;;;5114298;28;20035;-89
2022/10/16 08:18:23;;;;;;;4.55;2.80;;;34.40;99.90;;;;;;5114513;28;20436;-89
2022/10/16 08:20:54;;;;;;;3.55;2.70;;;34.00;99.90;;;;;;5114498;28;20035;-89
2022/10/16 08:23:20;;;;;;;5.07;3.00;;;34.00;99.90;;;;;;5114179;28;20160;-89
2022/10/16 08:25:45;;;;;;;3.20;2.78;;;31.80;99.90;;;;;;5090955;28;20118;-90
2022/10/16 08:28:11;;;;;;;5.38;2.80;;;32.90;99.90;;;;;;5114146;28;20552;-90
2022/10/16 08:30:37;;;;;;;3.60;2.70;;;34.70;99.90;;;;;;5113558;28;20035;-90
2022/10/16 08:33:03;;;;;;;3.55;2.90;;;35.30;99.90;;;;;;5114122;28;20517;-89
2022/10/16 08:35:29;;;;;;;3.42;2.75;;;35.80;99.90;;;;;;5113852;28;20047;-90
2022/10/16 08:37:54;;;;;;;2.75;2.53;;;35.70;99.90;;;;;;5108067;28;20139;-90
2022/10/16 08:40:24;;;;;;;3.70;2.70;;;36.70;99.90;;;;;;5093834;28;20494;-91
2022/10/16 08:43:07;;;;;;;2.90;2.60;;;36.10;99.90;;;;;;5075325;28;20024;-91
2022/10/16 08:46:02;;;;;;;3.00;2.65;;;37.00;99.90;;;;;;5113880;28;20554;-90
2022/10/16 08:48:35;;;;;;;3.42;2.47;;;35.80;99.90;;;;;;5112865;28;20023;-91
2022/10/16 08:51:03;;;;;;;6.18;2.63;;;38.20;99.90;;;;;;5113351;28;20444;-90
2022/10/16 08:53:55;;;;;;;4.57;2.50;;;37.30;99.90;;;;;;5113573;28;20030;-91
2022/10/16 08:56:22;;;;;;;7.47;2.92;;;38.60;99.90;;;;;;5114190;28;20031;-89
2022/10/16 08:58:48;;;;;;;4.45;2.22;;;37.10;99.90;;;;;;5113461;28;20012;-90
2022/10/16 09:01:16;;;;;;;3.50;2.60;;;38.20;99.90;;;;;;5108528;28;20487;-91
2022/10/16 09:04:20;;;;;;;3.95;2.50;;;38.70;99.90;;;;;;5101338;28;20024;-90
2022/10/16 09:07:16;;;;;;;3.83;2.65;;;39.70;99.90;;;;;;5092992;28;20111;-91
2022/10/16 09:09:58;;;;;;;2.67;2.38;;;39.40;99.90;;;;;;5093219;28;20034;-90
2022/10/16 09:12:43;;;;;;;4.57;2.58;;;39.00;99.90;;;;;;5103021;28;20495;-90
2022/10/16 09:15:16;;;;;;;3.00;2.42;;;39.30;99.90;;;;;;5112931;28;20073;-91
2022/10/16 09:17:48;;;;;;;3.63;2.35;;;38.60;99.90;;;;;;5113986;28;20077;-90
2022/10/16 09:20:23;;;;;;;4.40;2.47;;;39.20;99.90;;;;;;5113285;28;20023;-90
2022/10/16 09:22:50;;;;;;;3.10;2.30;;;41.20;99.90;;;;;;5113055;28;20061;-90
2022/10/16 09:25:20;;;;;;;3.47;2.20;;;41.60;99.90;;;;;;5112826;28;20030;-90
2022/10/16 09:27:48;;;;;;;3.72;2.38;;;41.80;99.90;;;;;;5112659;28;20036;-91
2022/10/16 09:30:17;;;;;;;3.25;2.42;;;40.30;99.90;;;;;;5113123;28;20027;-90
2022/10/16 09:32:47;;;;;;;3.50;2.35;;;40.80;99.90;;;;;;5095177;28;20376;-90
2022/10/16 09:35:19;;;;;;;3.75;2.40;;;39.00;99.90;;;;;;5092242;28;20035;-90
2022/10/16 09:37:47;;;;;;;3.92;2.40;;;39.30;99.90;;;;;;5094716;28;20032;-91
2022/10/16 09:40:28;;;;;;;6.00;2.42;;;38.70;99.90;;;;;;5107743;28;20027;-91
2022/10/16 09:43:02;;;;;;;3.50;2.28;;;39.50;99.90;;;;;;5086500;28;20032;-91
2022/10/16 09:45:27;;;;;;;4.57;2.42;;;37.00;99.90;;;;;;5111991;28;20531;-91
2022/10/16 09:47:53;;;;;;;3.17;2.30;;;36.30;99.90;;;;;;5094543;28;20131;-90
2022/10/16 09:50:26;;;;;;;3.42;2.10;;;38.70;99.90;;;;;;5112011;28;20098;-91
2022/10/16 09:53:04;;;;;;;2.83;2.13;;;37.60;99.90;;;;;;5113165;28;20027;-91
2022/10/16 09:55:29;;;;;;;4.03;2.25;;;38.40;99.90;;;;;;5112962;28;20474;-91
2022/10/16 09:57:55;;;;;;;3.05;2.30;;;39.00;99.90;;;;;;5113046;28;20053;-91
2022/10/16 10:00:23;;;;;;;3.45;2.20;;;39.30;99.90;;;;;;5112405;28;20027;-87
2022/10/16 10:02:49;;;;;;;5.38;2.25;;;38.20;99.90;;;;;;5108126;28;20020;-90
2022/10/16 10:05:25;;;;;;;3.35;2.30;;;38.40;99.90;;;;;;5092322;28;20028;-89
2022/10/16 10:08:07;;;;;;;5.47;2.25;;;41.20;99.90;;;;;;5107094;28;20028;-89
2022/10/16 10:10:41;;;;;;;4.30;2.30;;;39.00;99.90;;;;;;5080736;28;20535;-88
2022/10/16 10:13:26;;;;;;;5.22;2.33;;;40.60;99.90;;;;;;5091027;28;20024;-89
2022/10/16 10:15:53;;;;;;;4.45;2.70;;;40.60;99.90;;;;;;5074458;28;20035;-89
2022/10/16 10:18:21;;;;;;;3.70;2.22;;;39.00;99.90;;;;;;5092975;28;20024;-95
2022/10/16 10:21:01;;;;;;;4.72;2.00;;;40.00;99.90;;;;;;5091756;28;20111;-93
2022/10/16 10:23:29;;;;;;;2.75;2.15;;;39.60;99.90;;;;;;5092467;28;20085;-91
2022/10/16 10:26:14;;;;;;;3.40;2.17;;;39.70;99.90;;;;;;5091804;28;20403;-91
2022/10/16 10:29:11;;;;;;;2.83;1.90;;;40.60;99.90;;;;;;5091844;28;20024;-92
2022/10/16 10:31:46;;;;;;;3.70;2.20;;;40.60;99.90;;;;;;5090880;28;20071;-91
2022/10/16 10:34:35;;;;;;;3.08;2.30;;;36.80;99.90;;;;;;5091662;28;20016;-92
2022/10/16 10:37:31;;;;;;;3.83;2.25;;;37.80;99.90;;;;;;5071910;28;20024;-93
2022/10/16 10:40:23;;;;;;;3.83;2.60;;;37.50;99.90;;;;;;5082655;28;20119;-92
2022/10/16 10:43:25;;;;;;;2.95;2.03;;;35.90;99.90;;;;;;5092210;28;20074;-87
2022/10/16 10:46:02;;;;;;;2.63;2.38;;;34.10;99.90;;;;;;5076527;28;20032;-89
2022/10/16 10:48:53;;;;;;;3.25;2.58;;;33.70;99.90;;;;;;5089240;28;20484;-92
2022/10/16 10:51:44;;;;;;;5.35;2.42;;;35.40;99.90;;;;;;5091735;28;20040;-90
2022/10/16 10:54:31;;;;;;;2.15;1.92;;;34.10;99.90;;;;;;5092268;28;20028;-93
2022/10/16 10:56:59;;;;;;;3.72;2.05;;;34.50;99.90;;;;;;5091597;28;20024;-93
2022/10/16 10:59:59;;;;;;;2.65;2.30;;;34.00;99.90;;;;;;5095659;28;20035;-89
2022/10/16 11:03:09;;;;;;;3.22;2.10;;;35.30;99.90;;;;;;5088773;28;20062;-90
2022/10/16 11:06:36;;;;;;;3.88;2.30;;;34.20;99.90;;;;;;5071795;28;20032;-90
2022/10/16 11:09:07;;;;;;;3.42;3.13;;;35.50;99.90;;;;;;4969785;28;20118;-90
2022/10/16 11:11:42;;;;;;;2.50;2.30;;;38.40;99.90;;;;;;4972691;28;20198;-90
2022/10/16 11:14:26;;;;;;;2.88;2.30;;;35.80;99.90;;;;;;4973533;28;20026;-89
2022/10/16 11:17:18;;;;;;;2.40;1.90;;;33.30;99.90;;;;;;4973756;28;20046;-90
2022/10/16 11:20:13;;;;;;;3.65;2.47;;;34.10;99.90;;;;;;4967579;28;20034;-87
2022/10/16 11:23:04;;;;;;;2.88;2.33;;;35.30;99.90;;;;;;4974055;28;20414;-87
2022/10/16 11:25:31;;;;;;;2.45;1.92;;;35.00;99.90;;;;;;4973793;28;20050;-86
2022/10/16 11:28:10;;;;;;;4.22;2.17;;;33.50;99.90;;;;;;4974227;28;20027;-86
2022/10/16 11:30:50;;;;;;;5.40;2.40;;;33.80;99.90;;;;;;4973490;28;20070;-86
2022/10/16 11:33:18;;;;;;;3.28;2.20;;;34.30;99.90;;;;;;4973273;28;20019;-85
2022/10/16 11:35:51;;;;;;;5.00;2.60;;;37.00;99.90;;;;;;4973682;28;20117;-87
2022/10/16 11:38:49;;;;;;;4.13;2.45;;;37.50;99.90;;;;;;4973346;28;20171;-87
2022/10/16 11:41:26;;;;;;;4.03;2.10;;;38.10;99.90;;;;;;4973775;28;20114;-87
2022/10/16 11:44:36;;;;;;;3.45;1.90;;;34.00;99.90;;;;;;4989203;28;20180;-87
2022/10/16 11:47:17;;;;;;;2.88;2.10;;;34.80;99.90;;;;;;5031685;28;20021;-87
2022/10/16 11:49:45;;;;;;;2.55;2.13;;;36.00;99.90;;;;;;5045495;28;20543;-86
2022/10/16 11:52:20;;;;;;;4.68;1.95;;;35.20;99.90;;;;;;5052603;28;20064;-87
2022/10/16 11:54:55;;;;;;;3.50;2.10;;;37.20;99.90;;;;;;5051940;28;20033;-86
2022/10/16 11:57:29;;;;;;;3.65;2.55;;;38.00;99.90;;;;;;5051890;28;20040;-86
2022/10/16 12:00:00;;;;;;;5.57;2.75;;;36.60;99.90;;;;;;5051695;28;20488;-85
2022/10/16 12:02:39;;;;;;;4.50;2.45;;;34.50;99.90;;;;;;5051814;28;20065;-87
2022/10/16 12:05:21;;;;;;;3.10;2.90;;;34.70;99.90;;;;;;5035130;28;20114;-86
2022/10/16 12:08:11;;;;;;;4.32;2.40;;;35.90;99.90;;;;;;5051818;28;20029;-86
2022/10/16 12:10:39;;;;;;;5.15;4.57;;;35.70;99.90;;;;;;5051737;28;20420;-86
2022/10/16 12:13:25;;;;;;;4.13;3.78;;;35.50;99.90;;;;;;5051498;28;20024;-86
2022/10/16 12:15:50;;;;;;;3.33;2.10;;;34.30;99.90;;;;;;5051173;28;20123;-86
2022/10/16 12:18:24;;;;;;;3.05;2.10;;;34.20;99.90;;;;;;5052195;28;20029;-86
2022/10/16 12:21:05;;;;;;;4.35;1.95;;;35.40;99.90;;;;;;5061181;28;20041;-86
2022/10/16 12:23:31;;;;;;;2.50;2.10;;;35.60;99.90;;;;;;5073011;28;20161;-86
2022/10/16 12:26:02;;;;;;;3.17;2.00;;;34.40;99.90;;;;;;5074136;28;20455;-86
2022/10/16 12:28:33;;;;;;;2.78;1.90;;;34.70;99.90;;;;;;5073518;28;20484;-86
2022/10/16 12:31:05;;;;;;;3.83;1.83;;;34.40;99.90;;;;;;5077944;28;20024;-85
2022/10/16 12:33:36;;;;;;;2.72;1.95;;;35.30;99.90;;;;;;5094042;28;20020;-86
2022/10/16 12:36:08;;;;;;;4.70;2.30;;;35.80;99.90;;;;;;5093518;28;20040;-86
2022/10/16 12:38:53;;;;;;;2.50;1.92;;;35.40;99.90;;;;;;5093635;28;20107;-87
2022/10/16 12:41:30;;;;;;;3.25;1.98;;;33.90;99.90;;;;;;5093404;28;20024;-86
2022/10/16 12:43:56;;;;;;;3.63;2.30;;;34.30;99.90;;;;;;5093499;28;20028;-86
2022/10/16 12:46:23;;;;;;;3.88;2.10;;;35.10;99.90;;;;;;5093667;28;20428;-85
2022/10/16 12:48:50;;;;;;;3.55;2.03;;;35.00;99.90;;;;;;5092470;28;20127;-86
2022/10/16 12:51:28;;;;;;;3.55;2.30;;;35.10;99.90;;;;;;5093310;28;20032;-86
2022/10/16 12:54:02;;;;;;;3.55;2.15;;;35.10;99.90;;;;;;5093561;28;20559;-86
2022/10/16 12:56:38;;;;;;;4.25;2.15;;;34.20;99.90;;;;;;5093619;28;20088;-86
2022/10/16 12:59:14;;;;;;;3.65;2.33;;;35.10;99.90;;;;;;5093237;28;20028;-86
2022/10/16 13:02:27;;;;;;;3.72;2.20;;;35.90;99.90;;;;;;5092093;28;20036;-86
2022/10/16 13:05:10;;;;;;;2.30;2.10;;;33.90;99.90;;;;;;5093247;28;20192;-86